Historique des mesures à Cassis (13260), France
Quotidien Résumé Mai 5, 2020 Unités:  Métrique/US    US   Métrique
Quotidien Hebdomadaire Mensuel Annuel
  Maximum: Minimum: Moyenne:
Température: 88.2 °F /  31.2 °C 69.8 °F /  21 °C 78.3 °F /  25.7 °C
Point de rosée: 57.4 °F /  14.1 °C 46.9 °F /  8.3 °C 52.3 °F /  11.3 °C
Humidité: 52% 33% 41%
Vitesse du vent: 7.4mph /  11.9km/h - 1.9mph /  3km/h
Rafales: 13mph /  20.9km/h - -
Vent- - WSW
Pression: 29.9 in /  1011.6 hPa 29.7 in /  1006.0 hPa -
Précipitations: 0 in /  0.0 mm    
Historical Graphs
 
 
Mesures pour : Mai 5, 2020
Heure Temperature Point de rosée Pression Vent Vitesse du vent Rafales Humidité Pluie (par heure)
00:11 73.8 °F /  23.2 °C 48.6 °F /  9.2 °C 29.7in /  1006.2hPa NNW 3.1mph /  5km/h 11.9mph /  19.1km/h 41% 0in /  0.0mm
01:11 72.9 °F /  22.7 °C 48.4 °F /  9.1 °C 29.7in /  1006.1hPa NW 4mph /  6.5km/h 13mph /  20.9km/h 42% 0in /  0.0mm
02:11 72.5 °F /  22.5 °C 47.5 °F /  8.6 °C 29.7in /  1006.0hPa West 3.6mph /  5.8km/h 9.6mph /  15.5km/h 41% 0in /  0.0mm
03:11 71.8 °F /  22.1 °C 47.5 °F /  8.6 °C 29.7in /  1006.4hPa Calm   3.6mph /  5.8km/h 42% 0in /  0.0mm
04:11 70.9 °F /  21.6 °C 47.1 °F /  8.4 °C 29.7in /  1006.3hPa Calm   2.7mph /  4.3km/h 43% 0in /  0.0mm
05:11 70.5 °F /  21.4 °C 47.5 °F /  8.6 °C 29.7in /  1006.5hPa NNW 2mph /  3.2km/h 6mph /  9.7km/h 44% 0in /  0.0mm
06:11 70 °F /  21.1 °C 46.9 °F /  8.3 °C 29.7in /  1007.0hPa NW 1.8mph /  2.9km/h 4mph /  6.5km/h 44% 0in /  0.0mm
07:11 69.8 °F /  21 °C 47.5 °F /  8.6 °C 29.7in /  1007.2hPa NNW 2.2mph /  3.6km/h 4.7mph /  7.6km/h 45% 0in /  0.0mm
08:11 76.1 °F /  24.5 °C 49.3 °F /  9.6 °C 29.8in /  1007.8hPa NNW 2.2mph /  3.6km/h 3.1mph /  5km/h 39% 0in /  0.0mm
09:11 77.2 °F /  25.1 °C 51.1 °F /  10.6 °C 29.8in /  1008.2hPa NW 2.9mph /  4.7km/h 4mph /  6.5km/h 40% 0in /  0.0mm
10:11 76.5 °F /  24.7 °C 51.1 °F /  10.6 °C 29.8in /  1008.8hPa NW 2.7mph /  4.3km/h 4.9mph /  7.9km/h 41% 0in /  0.0mm
11:11 82 °F /  27.8 °C 53.8 °F /  12.1 °C 29.8in /  1009.4hPa SE 2.5mph /  4km/h 4.9mph /  7.9km/h 38% 0in /  0.0mm
12:11 85.8 °F /  29.9 °C 55.8 °F /  13.2 °C 29.8in /  1009.6hPa Calm   4.2mph /  6.8km/h 36% 0in /  0.0mm
13:11 87.6 °F /  30.9 °C 54.9 °F /  12.7 °C 29.8in /  1009.9hPa South 4.2mph /  6.8km/h 7.8mph /  12.6km/h 33% 0in /  0.0mm
14:11 88.2 °F /  31.2 °C 55.2 °F /  12.9 °C 29.8in /  1009.9hPa SSE 1.6mph /  2.5km/h 8.3mph /  13.3km/h 33% 0in /  0.0mm
15:11 87.6 °F /  30.9 °C 55.6 °F /  13.1 °C 29.8in /  1009.6hPa Calm   5.2mph /  8.3km/h 34% 0in /  0.0mm
16:11 86.9 °F /  30.5 °C 56.7 °F /  13.7 °C 29.8in /  1009.9hPa SSW 7.4mph /  11.9km/h 8.9mph /  14.4km/h 36% 0in /  0.0mm
17:11 86 °F /  30 °C 55.8 °F /  13.2 °C 29.8in /  1009.6hPa Calm   4.7mph /  7.6km/h 36% 0in /  0.0mm
18:11 85.1 °F /  29.5 °C 57.4 °F /  14.1 °C 29.8in /  1009.6hPa ESE 2.9mph /  4.7km/h 5.2mph /  8.3km/h 39% 0in /  0.0mm
19:11 82.6 °F /  28.1 °C 56.5 °F /  13.6 °C 29.8in /  1009.9hPa Calm   4.7mph /  7.6km/h 41% 0in /  0.0mm
20:11 81 °F /  27.2 °C 56.3 °F /  13.5 °C 29.8in /  1010.1hPa Calm   1.6mph /  2.5km/h 43% 0in /  0.0mm
21:11 77.2 °F /  25.1 °C 55.9 °F /  13.3 °C 29.8in /  1010.4hPa ESE 0.7mph /  1.1km/h 2mph /  3.2km/h 48% 0in /  0.0mm
22:11 74.5 °F /  23.6 °C 55.2 °F /  12.9 °C 29.9in /  1011.3hPa NNW 1.4mph /  2.2km/h 4.5mph /  7.2km/h 51% 0in /  0.0mm
23:11 72.9 °F /  22.7 °C 54.1 °F /  12.3 °C 29.9in /  1011.6hPa Calm   7.4mph /  11.9km/h 52% 0in /  0.0mm
Observations météo à CASSIS
WU-History script by Weather Underground - 2 mb